SondeTracker

Meteorological Radiosondes Database

Operations

Sounding was ended - last measurement: 2022-12-06 13:22:58z

MAP
About Radiosonde

Number: U3114375

Launch Site: Uberlândia (BR)

Type:

AUX: NO

Frequency: 402.900 MHz

Max Speed: 102 km/h at 14277 m

Average Speed: 48.56 km/h

Max Altitude: 19688 m

Average Ascent Speed: 2.88 m/s

Average Descent Speed: 0.00 m/s

Status: UNKNOWN

Status Changes
Launch Site Type AUX Frequency Status Finder Landing Point Description Changes made by
APRS Statistics

Received Frames: 113

First Frame [UTC]: 2022-12-06 11:49:58z

Last Frame [UTC]: 2022-12-06 13:22:58z

Receivers: PU4KVA

Flight Time: 01:33:00 h

Distance From First Measurement: 40.36 km

Nearest City: Araguari (BR) [26.31 km]

Nearest Hunter: [0.00 km]

Ground Altitude: 562 m

Distance from QTH: 0.00 km

APRS Data
Receiver Number Date/Time [UTC] φ λ Course [°] Speed [km/h] Altitude [m] Description
PU4KVAU31143752022-12-06 13:22:58-18.6341-48.44742644819688Clb=3.1m/s t=-69.5C h=4.6% p=59.4hPa 402.900 MHz RS41-SGP 2.5V ser=U3114375 RX=PU4KVA-UBERABA
PU4KVAU31143752022-12-06 13:22:13-18.6339-48.4432705419568Clb=4.3m/s t=-69.6C h=5.2% p=60.6hPa 402.900 MHz RS41-SGP 2.5V ser=U3114375 RX=PU4KVA-UBERABA
PU4KVAU31143752022-12-06 13:21:39-18.6338-48.43842725219441Clb=4.5m/s t=-69.7C h=5.2% p=61.9hPa 402.900 MHz RS41-SGP 2.5V ser=U3114375 RX=PU4KVA-UBERABA
PU4KVAU31143752022-12-06 13:20:58-18.6342-48.4342784819312Clb=3.7m/s t=-69.7C h=5.9% p=63.3hPa 402.900 MHz RS41-SGP 2.6V ser=U3114375 RX=PU4KVA-UBERABA
PU4KVAU31143752022-12-06 13:20:17-18.6344-48.42972745619188Clb=3.7m/s t=-69.9C h=6.1% p=64.6hPa 402.900 MHz RS41-SGP 2.5V ser=U3114375 RX=PU4KVA-UBERABA
PU4KVAU31143752022-12-06 13:19:30-18.6345-48.42582604419069Clb=4.2m/s t=-70.1C h=6.8% p=65.9hPa 402.900 MHz RS41-SGP 2.6V ser=U3114375 RX=PU4KVA-UBERABA
PU4KVAU31143752022-12-06 13:18:48-18.6338-48.42242574418959Clb=4.1m/s t=-70.3C h=7.7% p=67.1hPa 402.900 MHz RS41-SGP 2.5V ser=U3114375 RX=PU4KVA-UBERABA
PU4KVAU31143752022-12-06 13:18:09-18.6334-48.41882645418849Clb=3.8m/s t=-71.9C h=9.3% p=68.4hPa 402.900 MHz RS41-SGP 2.5V ser=U3114375 RX=PU4KVA-UBERABA
PU4KVAU31143752022-12-06 13:17:24-18.6334-48.41422765218739Clb=4.1m/s t=-71.3C h=9.5% p=69.7hPa 402.900 MHz RS41-SGP 2.6V ser=U3114375 RX=PU4KVA-UBERABA
PU4KVAU31143752022-12-06 13:16:43-18.6345-48.41012885418637Clb=3.8m/s t=-72.5C h=11.4% p=71.1hPa 402.900 MHz RS41-SGP 2.5V ser=U3114375 RX=PU4KVA-UBERABA
PU4KVAU31143752022-12-06 13:16:04-18.6351-48.40552746518544Clb=4.2m/s t=-73.1C h=12.8% p=72.4hPa 402.900 MHz RS41-SGP 2.6V ser=U3114375 RX=PU4KVA-UBERABA
PU4KVAU31143752022-12-06 13:15:20-18.6351-48.40012736118477Clb=3.5m/s t=-74.1C h=15.0% p=73.9hPa 402.900 MHz RS41-SGP 2.5V ser=U3114375 RX=PU4KVA-UBERABA
PU4KVAU31143752022-12-06 13:14:38-18.6354-48.39462737418279Clb=3.2m/s t=-74.4C h=15.9% p=75.3hPa 402.900 MHz RS41-SGP 2.6V ser=U3114375 RX=PU4KVA-UBERABA
PU4KVAU31143752022-12-06 13:13:58-18.6362-48.3882827418173Clb=3.0m/s t=-74.7C h=17.1% p=76.7hPa 402.900 MHz RS41-SGP 2.6V ser=U3114375 RX=PU4KVA-UBERABA
PU4KVAU31143752022-12-06 13:13:14-18.6375-48.38212806718074Clb=2.9m/s t=-75.6C h=18.6% p=78.0hPa 402.900 MHz RS41-SGP 2.6V ser=U3114375 RX=PU4KVA-UBERABA
PU4KVAU31143752022-12-06 13:12:28-18.6384-48.37672756917976Clb=3.7m/s t=-77.2C h=20.9% p=79.3hPa 402.900 MHz RS41-SGP 2.6V ser=U3114375 RX=PU4KVA-UBERABA
PU4KVAU31143752022-12-06 13:12:01-18.6391-48.37172775717875Clb=3.0m/s t=-77.0C h=19.8% p=80.8hPa 402.900 MHz RS41-SGP 2.7V ser=U3114375 RX=PU4KVA-UBERABA
PU4KVAU31143752022-12-06 13:11:54-18.6395-48.36672786117766Clb=2.8m/s t=-77.4C h=21.6% p=82.2hPa 402.900 MHz RS41-SGP 2.7V ser=U3114375 RX=PU4KVA-UBERABA
PU4KVAU31143752022-12-06 13:11:48-18.6404-48.36172846517655Clb=3.1m/s t=-78.0C h=21.7% p=83.9hPa 402.900 MHz RS41-SGP 2.6V ser=U3114375 RX=PU4KVA-UBERABA
PU4KVAU31143752022-12-06 13:11:39-18.6415-48.35632787017540Clb=3.6m/s t=-77.7C h=20.7% p=85.6hPa 402.900 MHz RS41-SGP 2.7V ser=U3114375 RX=PU4KVA-UBERABA
PU4KVAU31143752022-12-06 13:11:37-18.6426-48.352867617423Clb=3.7m/s t=-78.1C h=21.2% p=87.4hPa 402.900 MHz RS41-SGP 2.7V ser=U3114375 RX=PU4KVA-UBERABA
PU4KVAU31143752022-12-06 13:11:30-18.6437-48.34382817417306Clb=3.8m/s t=-78.1C h=20.5% p=89.2hPa 402.900 MHz RS41-SGP 2.6V ser=U3114375 RX=PU4KVA-UBERABA
PU4KVAU31143752022-12-06 13:11:02-18.6445-48.33742788317200Clb=4.1m/s t=-77.9C h=19.4% p=90.8hPa 402.900 MHz RS41-SGP 2.7V ser=U3114375 RX=PU4KVA-UBERABA
PU4KVAU31143752022-12-06 13:10:15-18.6459-48.3312828117098Clb=2.6m/s t=-77.5C h=18.5% p=92.5hPa 402.900 MHz RS41-SGP 2.6V ser=U3114375 RX=PU4KVA-UBERABA
PU4KVAU31143752022-12-06 13:09:21-18.6475-48.32492838017000Clb=3.1m/s t=-77.4C h=18.8% p=94.0hPa 402.900 MHz RS41-SGP 2.7V ser=U3114375 RX=PU4KVA-UBERABA
PU4KVAU31143752022-12-06 13:08:28-18.6488-48.31892807016901Clb=3.0m/s t=-76.9C h=18.9% p=95.7hPa 402.900 MHz RS41-SGP 2.6V ser=U3114375 RX=PU4KVA-UBERABA
PU4KVAU31143752022-12-06 13:07:28-18.6498-48.31312817216798Clb=3.5m/s t=-76.7C h=18.5% p=97.4hPa 402.900 MHz RS41-SGP 2.6V ser=U3114375 RX=PU4KVA-UBERABA
PU4KVAU31143752022-12-06 13:06:37-18.651-48.30682868016691Clb=2.9m/s t=-76.3C h=17.5% p=99.2hPa 402.900 MHz RS41-SGP 2.6V ser=U3114375 RX=PU4KVA-UBERABA
PU4KVAU31143752022-12-06 13:05:50-18.653-48.30032908716579Clb=3.7m/s t=-76.4C h=17.6% p=101.1hPa 402.900 MHz RS41-SGP 2.6V ser=U3114375 RX=PU4KVA-UBERABA
PU4KVAU31143752022-12-06 13:05:03-18.6554-48.2942968516465Clb=4.3m/s t=-76.1C h=16.4% p=103.2hPa 402.900 MHz RS41-SGP 2.6V ser=U3114375 RX=PU4KVA-UBERABA
PU4KVAU31143752022-12-06 13:04:12-18.6581-48.28823007216354Clb=4.1m/s t=-75.9C h=16.9% p=105.2hPa 402.900 MHz RS41-SGP 2.7V ser=U3114375 RX=PU4KVA-UBERABA
PU4KVAU31143752022-12-06 13:03:16-18.6606-48.28322986916243Clb=3.6m/s t=-75.4C h=16.5% p=107.2hPa 402.900 MHz RS41-SGP 2.6V ser=U3114375 RX=PU4KVA-UBERABA
PU4KVAU31143752022-12-06 13:02:32-18.6628-48.27862955916132Clb=3.4m/s t=-74.4C h=16.4% p=109.3hPa 402.900 MHz RS41-SGP 2.6V ser=U3114375 RX=PU4KVA-UBERABA
PU4KVAU31143752022-12-06 13:01:43-18.6648-48.2742936316021Clb=2.6m/s t=-73.5C h=17.1% p=111.4hPa 402.900 MHz RS41-SGP 2.6V ser=U3114375 RX=PU4KVA-UBERABA
PU4KVAU31143752022-12-06 13:00:50-18.6669-48.26932956715911Clb=3.7m/s t=-73.2C h=17.9% p=113.4hPa 402.900 MHz RS41-SGP 2.6V ser=U3114375 RX=PU4KVA-UBERABA
PU4KVAU31143752022-12-06 12:59:45-18.6693-48.26472986515806Clb=3.6m/s t=-72.7C h=18.5% p=115.5hPa 402.900 MHz RS41-SGP 2.7V ser=U3114375 RX=PU4KVA-UBERABA
PU4KVAU31143752022-12-06 12:58:42-18.6719-48.26013036715699Clb=3.8m/s t=-72.6C h=19.9% p=117.6hPa 402.900 MHz RS41-SGP 2.7V ser=U3114375 RX=PU4KVA-UBERABA
PU4KVAU31143752022-12-06 12:57:36-18.6747-48.25523037015593Clb=3.2m/s t=-72.6C h=20.3% p=119.8hPa 402.900 MHz RS41-SGP 2.7V ser=U3114375 RX=PU4KVA-UBERABA
PU4KVAU31143752022-12-06 12:56:40-18.6777-48.25033077815487Clb=3.9m/s t=-72.5C h=19.2% p=121.9hPa 402.900 MHz RS41-SGP 2.7V ser=U3114375 RX=PU4KVA-UBERABA
PU4KVAU31143752022-12-06 12:55:47-18.681-48.24553046515381Clb=3.5m/s t=-71.8C h=18.6% p=124.2hPa 402.900 MHz RS41-SGP 2.7V ser=U3114375 RX=PU4KVA-UBERABA
PU4KVAU31143752022-12-06 12:54:46-18.6837-48.24112996315275Clb=3.8m/s t=-71.4C h=17.5% p=126.5hPa 402.900 MHz RS41-SGP 2.6V ser=U3114375 RX=PU4KVA-UBERABA
PU4KVAU31143752022-12-06 12:53:55-18.6866-48.23663046515169Clb=3.3m/s t=-70.8C h=18.3% p=128.7hPa 402.900 MHz RS41-SGP 2.7V ser=U3114375 RX=PU4KVA-UBERABA
PU4KVAU31143752022-12-06 12:52:58-18.6899-48.2323067215069Clb=3.4m/s t=-70.4C h=18.4% p=130.9hPa 402.900 MHz RS41-SGP 2.7V ser=U3114375 RX=PU4KVA-UBERABA
PU4KVAU31143752022-12-06 12:51:52-18.6934-48.2273068114970Clb=3.8m/s t=-69.6C h=20.0% p=133.0hPa 402.900 MHz RS41-SGP 2.7V ser=U3114375 RX=PU4KVA-UBERABA
PU4KVAU31143752022-12-06 12:50:55-18.6973-48.22193118114869Clb=3.8m/s t=-69.1C h=21.5% p=135.3hPa 402.900 MHz RS41-SGP 2.6V ser=U3114375 RX=PU4KVA-UBERABA
PU4KVAU31143752022-12-06 12:49:52-18.7018-48.21653148914774Clb=3.4m/s t=-68.5C h=25.2% p=137.5hPa 402.900 MHz RS41-SGP 2.7V ser=U3114375 RX=PU4KVA-UBERABA
PU4KVAU31143752022-12-06 12:48:54-18.7069-48.21143218714680Clb=3.5m/s t=-68.3C h=33.4% p=139.6hPa 402.900 MHz RS41-SGP 2.7V ser=U3114375 RX=PU4KVA-UBERABA
PU4KVAU31143752022-12-06 12:47:40-18.7125-48.20683288914582Clb=3.5m/s t=-69.1C h=42.1% p=141.9hPa 402.900 MHz RS41-SGP 2.7V ser=U3114375 RX=PU4KVA-UBERABA
PU4KVAU31143752022-12-06 12:46:46-18.7188-48.20333329114482Clb=3.2m/s t=-68.5C h=50.0% p=144.3hPa 402.900 MHz RS41-SGP 2.7V ser=U3114375 RX=PU4KVA-UBERABA
PU4KVAU31143752022-12-06 12:45:44-18.7253-48.199733610014384Clb=3.2m/s t=-68.9C h=57.8% p=146.7hPa 402.900 MHz RS41-SGP 2.7V ser=U3114375 RX=PU4KVA-UBERABA
PU4KVAU31143752022-12-06 12:44:38-18.7328-48.196433710214277Clb=3.2m/s t=-68.5C h=59.7% p=149.3hPa 402.900 MHz RS41-SGP 2.7V ser=U3114375 RX=PU4KVA-UBERABA
PU4KVAU31143752022-12-06 12:43:59-18.7399-48.19383449414179Clb=2.8m/s t=-68.6C h=60.5% p=151.8hPa 402.900 MHz RS41-SGP 2.7V ser=U3114375 RX=PU4KVA-UBERABA
PU4KVAU31143752022-12-06 12:43:51-18.747-48.19223488914078Clb=3.3m/s t=-68.2C h=64.7% p=154.3hPa 402.900 MHz RS41-SGP 2.7V ser=U3114375 RX=PU4KVA-UBERABA
PU4KVAU31143752022-12-06 12:43:48-18.7537-48.19073478313978Clb=3.6m/s t=-67.5C h=65.3% p=156.9hPa 402.900 MHz RS41-SGP 2.8V ser=U3114375 RX=PU4KVA-UBERABA
PU4KVAU31143752022-12-06 12:43:35-18.7601-48.18923517813876Clb=2.8m/s t=-66.7C h=63.4% p=159.6hPa 402.900 MHz RS41-SGP 2.7V ser=U3114375 RX=PU4KVA-UBERABA
PU4KVAU31143752022-12-06 12:43:20-18.7664-48.1883498113768Clb=3.0m/s t=-65.8C h=70.8% p=162.4hPa 402.900 MHz RS41-SGP 2.8V ser=U3114375 RX=PU4KVA-UBERABA
PU4KVAU31143752022-12-06 12:42:42-18.7726-48.18693517413665Clb=3.6m/s t=-65.0C h=65.7% p=165.2hPa 402.900 MHz RS41-SGP 2.8V ser=U3114375 RX=PU4KVA-UBERABA
PU4KVAU31143752022-12-06 12:42:00-18.7786-48.18583508113560Clb=3.3m/s t=-64.1C h=61.8% p=168.0hPa 402.900 MHz RS41-SGP 2.8V ser=U3114375 RX=PU4KVA-UBERABA
PU4KVAU31143752022-12-06 12:41:56-18.7845-48.18513567013456Clb=3.1m/s t=-63.6C h=66.0% p=170.8hPa 402.900 MHz RS41-SGP 2.7V ser=U3114375 RX=PU4KVA-UBERABA
PU4KVAU31143752022-12-06 12:41:52-18.79-48.18463536313353Clb=3.2m/s t=-62.7C h=73.1% p=173.8hPa 402.900 MHz RS41-SGP 2.7V ser=U3114375 RX=PU4KVA-UBERABA
PU4KVAU31143752022-12-06 12:41:50-18.795-48.18413596313249Clb=2.6m/s t=-61.9C h=72.2% p=176.7hPa 402.900 MHz RS41-SGP 2.8V ser=U3114375 RX=PU4KVA-UBERABA
PU4KVAU31143752022-12-06 12:41:48-18.7999-48.18383596113146Clb=3.6m/s t=-60.9C h=66.8% p=179.7hPa 402.900 MHz RS41-SGP 2.8V ser=U3114375 RX=PU4KVA-UBERABA
PU4KVAU31143752022-12-06 12:41:45-18.8048-48.18353575713046Clb=3.8m/s t=-60.0C h=64.8% p=182.5hPa 402.900 MHz RS41-SGP 2.8V ser=U3114375 RX=PU4KVA-UBERABA
PU4KVAU31143752022-12-06 12:41:20-18.8094-48.18333575212936Clb=3.7m/s t=-59.1C h=62.1% p=185.8hPa 402.900 MHz RS41-SGP 2.7V ser=U3114375 RX=PU4KVA-UBERABA
PU4KVAU31143752022-12-06 12:40:36-18.8135-48.18304612840Clb=2.9m/s t=-58.1C h=59.2% p=188.7hPa 402.900 MHz RS41-SGP 2.8V ser=U3114375 RX=PU4KVA-UBERABA
PU4KVAU31143752022-12-06 12:39:33-18.8176-48.18293584812742Clb=3.4m/s t=-57.2C h=56.0% p=191.6hPa 402.900 MHz RS41-SGP 2.8V ser=U3114375 RX=PU4KVA-UBERABA
PU4KVAU31143752022-12-06 12:38:24-18.8217-48.18283555012639Clb=3.0m/s t=-56.2C h=53.0% p=194.7hPa 402.900 MHz RS41-SGP 2.8V ser=U3114375 RX=PU4KVA-UBERABA
PU4KVAU31143752022-12-06 12:37:12-18.8254-48.182704412538Clb=2.8m/s t=-55.3C h=55.9% p=197.7hPa 402.900 MHz RS41-SGP 2.7V ser=U3114375 RX=PU4KVA-UBERABA
PU4KVAU31143752022-12-06 12:36:06-18.8289-48.18263584312439Clb=3.3m/s t=-54.4C h=56.6% p=200.8hPa 402.900 MHz RS41-SGP 2.8V ser=U3114375 RX=PU4KVA-UBERABA
PU4KVAU31143752022-12-06 12:34:43-18.8324-48.18253574312339Clb=3.6m/s t=-53.5C h=56.1% p=204.0hPa 402.900 MHz RS41-SGP 2.8V ser=U3114375 RX=PU4KVA-UBERABA
PU4KVAU31143752022-12-06 12:33:23-18.8358-48.18243574412243Clb=3.0m/s t=-52.5C h=57.3% p=207.1hPa 402.900 MHz RS41-SGP 2.8V ser=U3114375 RX=PU4KVA-UBERABA
PU4KVAU31143752022-12-06 12:32:35-18.8945-48.17113431310212Clb=3.4m/s t=-35.0C h=73.6% p=279.9hPa 402.900 MHz RS41-SGP 2.9V ser=U3114375 RX=PU4KVA-UBERABA
PU4KVAU31143752022-12-06 12:31:19-18.8956-48.17053281710111Clb=3.0m/s t=-34.2C h=73.3% p=283.9hPa 402.900 MHz RS41-SGP 2.9V ser=U3114375 RX=PU4KVA-UBERABA
PU4KVAU31143752022-12-06 12:30:06-18.8967-48.16983281510014Clb=2.9m/s t=-33.3C h=74.1% p=287.9hPa 402.900 MHz RS41-SGP 2.8V ser=U3114375 RX=PU4KVA-UBERABA
PU4KVAU31143752022-12-06 12:28:53-18.8977-48.1691341179919Clb=2.7m/s t=-32.5C h=75.3% p=291.9hPa 402.900 MHz RS41-SGP 2.8V ser=U3114375 RX=PU4KVA-UBERABA
PU4KVAU31143752022-12-06 12:27:43-18.8988-48.1685334179819Clb=2.8m/s t=-31.7C h=75.1% p=295.9hPa 402.900 MHz RS41-SGP 2.9V ser=U3114375 RX=PU4KVA-UBERABA
PU4KVAU31143752022-12-06 12:26:39-18.8999-48.1678327179719Clb=2.9m/s t=-31.0C h=76.7% p=300.1hPa 402.900 MHz RS41-SGP 2.9V ser=U3114375 RX=PU4KVA-UBERABA
PU4KVAU31143752022-12-06 12:25:38-18.901-48.1672328159622Clb=3.1m/s t=-30.3C h=78.5% p=304.2hPa 402.900 MHz RS41-SGP 2.8V ser=U3114375 RX=PU4KVA-UBERABA
PU4KVAU31143752022-12-06 12:24:15-18.9024-48.1666329179523Clb=3.5m/s t=-29.7C h=77.8% p=308.5hPa 402.900 MHz RS41-SGP 2.8V ser=U3114375 RX=PU4KVA-UBERABA
PU4KVAU31143752022-12-06 12:23:20-18.904-48.1663350179421Clb=2.6m/s t=-28.7C h=85.5% p=312.9hPa 402.900 MHz RS41-SGP 2.8V ser=U3114375 RX=PU4KVA-UBERABA
PU4KVAU31143752022-12-06 12:21:45-18.9056-48.1661347179316Clb=3.9m/s t=-27.9C h=88.2% p=317.6hPa 402.900 MHz RS41-SGP 2.9V ser=U3114375 RX=PU4KVA-UBERABA
PU4KVAU31143752022-12-06 12:20:20-18.9072-48.166346179205Clb=3.6m/s t=-27.0C h=86.5% p=322.5hPa 402.900 MHz RS41-SGP 2.9V ser=U3114375 RX=PU4KVA-UBERABA
PU4KVAU31143752022-12-06 12:18:38-18.9087-48.1658349229085Clb=3.7m/s t=-26.1C h=85.9% p=327.9hPa 402.900 MHz RS41-SGP 2.9V ser=U3114375 RX=PU4KVA-UBERABA
PU4KVAU31143752022-12-06 12:17:24-18.9103-48.16585228959Clb=4.4m/s t=-25.1C h=82.5% p=333.5hPa 402.900 MHz RS41-SGP 2.9V ser=U3114375 RX=PU4KVA-UBERABA
PU4KVAU31143752022-12-06 12:16:21-18.9119-48.1656347198835Clb=3.8m/s t=-24.2C h=84.9% p=339.2hPa 402.900 MHz RS41-SGP 2.9V ser=U3114375 RX=PU4KVA-UBERABA
PU4KVAU31143752022-12-06 12:15:58-18.9135-48.16540198708Clb=4.2m/s t=-23.4C h=85.2% p=345.1hPa 402.900 MHz RS41-SGP 2.9V ser=U3114375 RX=PU4KVA-UBERABA
PU4KVAU31143752022-12-06 12:15:55-18.9147-48.16543138580Clb=4.2m/s t=-22.5C h=85.3% p=351.3hPa 402.900 MHz RS41-SGP 2.9V ser=U3114375 RX=PU4KVA-UBERABA
PU4KVAU31143752022-12-06 12:15:52-18.9158-48.165632118451Clb=4.1m/s t=-21.5C h=85.4% p=357.5hPa 402.900 MHz RS41-SGP 2.9V ser=U3114375 RX=PU4KVA-UBERABA
PU4KVAU31143752022-12-06 12:15:49-18.9168-48.165431148315Clb=3.7m/s t=-20.5C h=85.8% p=364.1hPa 402.900 MHz RS41-SGP 2.9V ser=U3114375 RX=PU4KVA-UBERABA
PU4KVAU31143752022-12-06 12:15:45-18.9175-48.165134878188Clb=4.4m/s t=-19.6C h=85.4% p=370.4hPa 402.900 MHz RS41-SGP 2.9V ser=U3114375 RX=PU4KVA-UBERABA
PU4KVAU31143752022-12-06 12:15:25-18.9183-48.1657138059Clb=4.6m/s t=-18.8C h=84.9% p=377.0hPa 402.900 MHz RS41-SGP 2.9V ser=U3114375 RX=PU4KVA-UBERABA
PU4KVAU31143752022-12-06 12:14:55-18.9192-48.1649318137932Clb=3.8m/s t=-17.9C h=85.5% p=383.4hPa 402.900 MHz RS41-SGP 2.9V ser=U3114375 RX=PU4KVA-UBERABA
PU4KVAU31143752022-12-06 12:13:51-18.92-48.164632397804Clb=4.3m/s t=-17.1C h=88.2% p=389.9hPa 402.900 MHz RS41-SGP 2.9V ser=U3114375 RX=PU4KVA-UBERABA
PU4KVAU31143752022-12-06 12:12:39-18.9208-48.1643342117671Clb=3.7m/s t=-16.4C h=89.1% p=396.8hPa 402.900 MHz RS41-SGP 2.9V ser=U3114375 RX=PU4KVA-UBERABA
PU4KVAU31143752022-12-06 12:11:27-18.9216-48.16452777549Clb=4.0m/s t=-15.5C h=86.3% p=403.2hPa 402.900 MHz RS41-SGP 2.9V ser=U3114375 RX=PU4KVA-UBERABA
PU4KVAU31143752022-12-06 12:09:51-18.9282-48.1806111155306Clb=3.1m/s t=-2.8C h=94.5% p=538.3hPa 402.900 MHz RS41-SGP 3.0V ser=U3114375 RX=PU4KVA-UBERABA
PU4KVAU31143752022-12-06 12:08:31-18.9277-48.182113195216Clb=3.4m/s t=-2.3C h=93.1% p=544.3hPa 402.900 MHz RS41-SGP 3.0V ser=U3114375 RX=PU4KVA-UBERABA
PU4KVAU31143752022-12-06 12:07:08-18.9271-48.1834114195119Clb=3.2m/s t=-1.6C h=91.4% p=550.9hPa 402.900 MHz RS41-SGP 3.0V ser=U3114375 RX=PU4KVA-UBERABA
PU4KVAU31143752022-12-06 12:05:59-18.9266-48.1847114155037Clb=3.0m/s t=-1.2C h=92.9% p=556.6hPa 402.900 MHz RS41-SGP 3.0V ser=U3114375 RX=PU4KVA-UBERABA
PU4KVAU31143752022-12-06 12:04:43-18.9259-48.1862111194944Clb=2.5m/s t=-0.8C h=93.9% p=563.2hPa 402.900 MHz RS41-SGP 3.0V ser=U3114375 RX=PU4KVA-UBERABA
PU4KVAU31143752022-12-06 12:03:24-18.9251-48.1875128174859Clb=3.4m/s t=-0.3C h=93.4% p=569.1hPa 402.900 MHz RS41-SGP 3.0V ser=U3114375 RX=PU4KVA-UBERABA
PU4KVAU31143752022-12-06 12:02:17-18.924-48.1891129174743Clb=3.1m/s t=0.1C h=93.2% p=577.5hPa 402.900 MHz RS41-SGP 3.0V ser=U3114375 RX=PU4KVA-UBERABA
PU4KVAU31143752022-12-06 12:01:11-18.9235-48.1898125174685Clb=2.7m/s t=0.4C h=95.3% p=581.7hPa 402.900 MHz RS41-SGP 3.0V ser=U3114375 RX=PU4KVA-UBERABA
PU4KVAU31143752022-12-06 11:58:35-18.9221-48.1922124154494Clb=2.5m/s t=1.1C h=99.2% p=595.6hPa 402.900 MHz RS41-SGP 3.0V ser=U3114375 RX=PU4KVA-UBERABA
PU4KVAU31143752022-12-06 11:57:16-18.9217-48.192910964430Clb=3.4m/s t=1.5C h=97.8% p=600.4hPa 402.900 MHz RS41-SGP 3.0V ser=U3114375 RX=PU4KVA-UBERABA
PU4KVAU31143752022-12-06 11:55:03-18.9208-48.1948137224260Clb=3.6m/s t=2.5C h=98.9% p=613.2hPa 402.900 MHz RS41-SGP 3.0V ser=U3114375 RX=PU4KVA-UBERABA
PU4KVAU31143752022-12-06 11:53:50-18.92-48.1959123174169Clb=3.2m/s t=3.0C h=99.8% p=620.0hPa 402.900 MHz RS41-SGP 3.0V ser=U3114375 RX=PU4KVA-UBERABA
PU4KVAU31143752022-12-06 11:52:29-18.9191-48.1976119224057Clb=3.4m/s t=3.5C h=100.0% p=628.5hPa 402.900 MHz RS41-SGP 3.0V ser=U3114375 RX=PU4KVA-UBERABA
PU4KVAU31143752022-12-06 11:51:45-18.9182-48.1995117203939Clb=3.0m/s t=4.1C h=100.0% p=-1.0hPa 402.900 MHz RS41-SGP 3.0V ser=U3114375 RX=PU4KVA-UBERABA
PU4KVAU31143752022-12-06 11:51:09-18.9177-48.2008111203863Clb=2.4m/s t=4.5C h=100.0% p=-1.0hPa 402.900 MHz RS41-SGP 3.0V ser=U3114375 RX=PU4KVA-UBERABA
PU4KVAU31143752022-12-06 11:50:47-18.917-48.2032101203744Clb=3.5m/s t=5.0C h=100.0% p=-1.0hPa 402.900 MHz RS41 3.0V ser=U3114375 RX=PU4KVA-UBERABA
PU4KVAU31143752022-12-06 11:50:12-18.9167-48.20498223707Clb=3.2m/s t=5.2C h=-1.0% p=-1.0hPa 402.900 MHz RS41 3.0V ser=U3114375 RX=PU4KVA-UBERABA
PU4KVAU31143752022-12-06 11:49:58-18.9161-48.206110203619Clb=4.0m/s t=5.8C h=-1.0% p=-1.0hPa 402.900 MHz RS41 3.0V ser=U3114375 RX=PU4KVA-UBERABA